createdAt,value
2023-01-04T00:01:25.433Z,5.90
2023-01-04T00:03:52.447Z,5.80
2023-01-04T00:06:19.631Z,5.80
2023-01-04T00:08:46.425Z,5.70
2023-01-04T00:11:15.056Z,5.60
2023-01-04T00:13:41.881Z,5.50
2023-01-04T00:16:11.756Z,5.50
2023-01-04T00:18:38.643Z,5.40
2023-01-04T00:21:18.571Z,5.40
2023-01-04T00:23:46.737Z,5.30
2023-01-04T00:26:15.641Z,5.30
2023-01-04T00:28:43.933Z,5.20
2023-01-04T00:31:14.041Z,5.20
2023-01-04T00:33:40.774Z,5.20
2023-01-04T00:36:12.164Z,5.10
2023-01-04T00:38:39.010Z,5.30
2023-01-04T00:41:06.064Z,5.30
2023-01-04T00:43:32.929Z,5.30
2023-01-04T00:46:01.293Z,5.40
2023-01-04T00:48:28.841Z,5.50
2023-01-04T00:50:55.623Z,5.60
2023-01-04T00:53:22.396Z,5.60
2023-01-04T00:55:49.099Z,5.60
2023-01-04T00:58:15.787Z,5.60
2023-01-04T01:00:42.512Z,5.60
2023-01-04T01:03:09.396Z,5.60
2023-01-04T01:05:36.376Z,5.60
2023-01-04T01:08:23.499Z,5.60
2023-01-04T01:10:50.926Z,5.60
2023-01-04T01:13:17.729Z,5.70
2023-01-04T01:15:44.524Z,5.70
2023-01-04T01:18:11.408Z,5.70
2023-01-04T01:20:44.792Z,5.80
2023-01-04T01:23:14.902Z,5.90
2023-01-04T01:25:41.896Z,5.90
2023-01-04T01:28:08.702Z,5.90
2023-01-04T01:30:38.725Z,5.90
2023-01-04T01:33:05.413Z,6.00
2023-01-04T01:35:33.579Z,5.90
2023-01-04T01:38:00.332Z,5.90
2023-01-04T01:40:27.081Z,5.90
2023-01-04T01:42:53.830Z,5.90
2023-01-04T01:45:33.650Z,5.90
2023-01-04T01:48:15.470Z,5.90
2023-01-04T01:50:46.771Z,5.90
2023-01-04T01:53:13.719Z,5.90
2023-01-04T01:55:40.770Z,5.80
2023-01-04T01:58:07.614Z,5.80
2023-01-04T02:00:34.343Z,5.80
2023-01-04T02:03:12.486Z,5.80
2023-01-04T02:05:39.414Z,5.70
2023-01-04T02:08:06.195Z,5.70
2023-01-04T02:10:33.194Z,5.70
2023-01-04T02:13:02.580Z,5.70
2023-01-04T02:15:29.663Z,5.60
2023-01-04T02:18:02.067Z,5.60
2023-01-04T02:20:31.945Z,5.50
2023-01-04T02:23:20.355Z,5.60
2023-01-04T02:26:14.549Z,5.60
2023-01-04T02:29:12.610Z,5.60
2023-01-04T02:31:46.052Z,5.50
2023-01-04T02:34:33.952Z,5.50
2023-01-04T02:37:12.021Z,5.50
2023-01-04T02:39:57.210Z,5.50
2023-01-04T02:42:52.077Z,5.50
2023-01-04T02:45:21.857Z,5.40
2023-01-04T02:48:07.121Z,5.40
2023-01-04T02:50:58.483Z,5.40
2023-01-04T02:53:37.570Z,5.40
2023-01-04T02:56:18.439Z,5.40
2023-01-04T02:58:57.523Z,5.30
2023-01-04T03:02:09.357Z,5.30
2023-01-04T03:05:30.323Z,5.20
2023-01-04T03:08:22.633Z,5.20
2023-01-04T03:11:30.666Z,5.20
2023-01-04T03:14:31.715Z,5.20
2023-01-04T03:16:56.629Z,5.10
2023-01-04T03:19:42.564Z,5.10
2023-01-04T03:22:29.239Z,5.00
2023-01-04T03:25:14.405Z,5.00
2023-01-04T03:27:59.591Z,5.00
2023-01-04T03:30:45.925Z,4.90
2023-01-04T03:33:31.048Z,4.80
2023-01-04T03:36:10.974Z,4.80
2023-01-04T03:39:14.903Z,4.80
2023-01-04T03:42:06.066Z,4.80
2023-01-04T03:45:36.908Z,4.70
2023-01-04T03:48:27.264Z,4.70
2023-01-04T03:51:14.822Z,4.60
2023-01-04T03:53:55.260Z,4.50
2023-01-04T03:56:22.597Z,4.50
2023-01-04T03:58:51.697Z,4.40
2023-01-04T04:01:21.684Z,4.40
2023-01-04T04:04:07.168Z,4.30
2023-01-04T04:06:52.551Z,4.30
2023-01-04T04:09:19.318Z,4.20
2023-01-04T04:11:46.031Z,4.20
2023-01-04T04:14:12.769Z,4.20
2023-01-04T04:16:39.624Z,4.10
2023-01-04T04:19:08.784Z,4.10
2023-01-04T04:21:36.107Z,4.00
2023-01-04T04:24:02.900Z,4.00
2023-01-04T04:26:29.637Z,4.00
2023-01-04T04:28:56.361Z,4.00
2023-01-04T04:31:23.107Z,4.00
2023-01-04T04:33:49.858Z,4.10
2023-01-04T04:36:16.599Z,4.00
2023-01-04T04:38:43.353Z,3.90
2023-01-04T04:41:29.670Z,3.80
2023-01-04T04:43:57.219Z,3.70
2023-01-04T04:46:24.261Z,3.60
2023-01-04T04:48:51.113Z,3.60
2023-01-04T04:51:17.933Z,3.60
2023-01-04T04:53:44.745Z,3.50
2023-01-04T04:56:11.479Z,3.40
2023-01-04T04:58:39.041Z,3.40
2023-01-04T05:01:05.886Z,3.40
2023-01-04T05:03:33.073Z,3.40
2023-01-04T05:05:59.927Z,3.40
2023-01-04T05:08:26.733Z,3.40
2023-01-04T05:10:53.606Z,3.20
2023-01-04T05:13:20.364Z,3.20
2023-01-04T05:15:49.115Z,3.10
2023-01-04T05:18:16.798Z,3.20
2023-01-04T05:20:43.650Z,3.20
2023-01-04T05:23:11.853Z,3.20
2023-01-04T05:25:38.807Z,3.20
2023-01-04T05:28:06.211Z,3.30
2023-01-04T05:30:51.238Z,3.30
2023-01-04T05:33:20.666Z,3.30
2023-01-04T05:35:47.544Z,3.30
2023-01-04T05:38:14.325Z,3.30
2023-01-04T05:40:41.146Z,3.30
2023-01-04T05:43:07.972Z,3.20
2023-01-04T05:45:35.012Z,3.20
2023-01-04T05:48:01.842Z,3.00
2023-01-04T05:50:28.714Z,3.00
2023-01-04T05:52:55.446Z,2.90
2023-01-04T05:55:22.248Z,2.80
2023-01-04T05:57:49.078Z,2.80
2023-01-04T06:00:15.959Z,2.80
2023-01-04T06:02:43.145Z,2.80
2023-01-04T06:05:10.845Z,2.80
2023-01-04T06:07:38.619Z,2.80
2023-01-04T06:10:10.286Z,2.90
2023-01-04T06:12:37.134Z,2.90
2023-01-04T06:15:04.477Z,2.80
2023-01-04T06:17:31.159Z,2.70
2023-01-04T06:19:57.943Z,2.70
2023-01-04T06:22:27.027Z,2.70
2023-01-04T06:24:53.783Z,2.70
2023-01-04T06:27:20.527Z,2.70
2023-01-04T06:29:47.231Z,2.70
2023-01-04T06:32:14.025Z,2.70
2023-01-04T06:34:40.787Z,2.70
2023-01-04T06:37:07.540Z,2.70
2023-01-04T06:39:34.275Z,2.70
2023-01-04T06:42:06.221Z,2.70
2023-01-04T06:44:33.576Z,2.80
2023-01-04T06:47:00.327Z,2.80
2023-01-04T06:49:27.050Z,2.70
2023-01-04T06:51:53.822Z,2.60
2023-01-04T06:54:20.599Z,2.60
2023-01-04T06:56:47.372Z,2.60
2023-01-04T06:59:14.224Z,2.60
2023-01-04T07:01:41.060Z,2.60
2023-01-04T07:04:07.932Z,2.60
2023-01-04T07:06:34.703Z,2.60
2023-01-04T07:09:01.442Z,2.70
2023-01-04T07:11:28.161Z,2.80
2023-01-04T07:13:55.043Z,3.10
2023-01-04T07:16:21.892Z,3.30
2023-01-04T07:18:48.724Z,3.60
2023-01-04T07:21:15.461Z,3.90
2023-01-04T07:23:42.225Z,4.20
2023-01-04T07:26:09.075Z,4.50
2023-01-04T07:28:54.654Z,4.70
2023-01-04T07:31:21.492Z,4.80
2023-01-04T07:33:51.306Z,5.10
2023-01-04T07:36:18.050Z,5.40
2023-01-04T07:38:44.824Z,5.60
2023-01-04T07:41:11.587Z,5.90
2023-01-04T07:43:38.372Z,6.20
2023-01-04T07:46:05.230Z,6.50
2023-01-04T07:48:32.030Z,6.70
2023-01-04T07:50:58.808Z,7.00
2023-01-04T07:53:25.547Z,7.20
2023-01-04T07:55:57.094Z,7.40
2023-01-04T07:58:23.928Z,7.50
2023-01-04T08:00:51.093Z,7.70
2023-01-04T08:03:17.892Z,7.80
2023-01-04T08:05:44.645Z,7.90
2023-01-04T08:08:11.386Z,8.10
2023-01-04T08:10:38.145Z,8.30
2023-01-04T08:13:04.983Z,8.50
2023-01-04T08:15:32.434Z,8.60
2023-01-04T08:17:59.205Z,8.90
2023-01-04T08:20:26.095Z,9.10
2023-01-04T08:22:52.935Z,9.40
2023-01-04T08:25:19.700Z,9.50
2023-01-04T08:27:46.428Z,9.60
2023-01-04T08:30:13.182Z,9.60
2023-01-04T08:32:40.619Z,9.80
2023-01-04T08:35:07.699Z,9.90
2023-01-04T08:37:35.435Z,10.10
2023-01-04T08:40:03.097Z,10.20
2023-01-04T08:42:31.887Z,10.50
2023-01-04T08:45:01.346Z,10.70
2023-01-04T08:47:30.249Z,11.00
2023-01-04T08:49:57.361Z,11.20
2023-01-04T08:52:24.236Z,11.50
2023-01-04T08:54:51.022Z,11.70
2023-01-04T08:57:18.084Z,11.90
2023-01-04T08:59:44.928Z,12.00
2023-01-04T09:02:29.753Z,12.10
2023-01-04T09:05:00.046Z,12.10
2023-01-04T09:07:32.984Z,12.20
2023-01-04T09:10:03.316Z,12.10
2023-01-04T09:12:30.136Z,12.00
2023-01-04T09:14:56.841Z,11.90
2023-01-04T09:17:24.353Z,11.70
2023-01-04T09:19:51.081Z,11.50
2023-01-04T09:22:17.878Z,11.30
2023-01-04T09:24:44.642Z,11.10
2023-01-04T09:27:12.242Z,10.90
2023-01-04T09:29:38.959Z,10.80
2023-01-04T09:32:06.727Z,10.90
2023-01-04T09:34:35.253Z,10.80
2023-01-04T09:37:02.019Z,10.80
2023-01-04T09:39:30.596Z,10.80
2023-01-04T09:42:03.987Z,10.80
2023-01-04T09:48:03.109Z,10.90
2023-01-04T09:50:36.739Z,11.00
2023-01-04T09:53:23.997Z,11.20
2023-01-04T09:55:51.757Z,11.20
2023-01-04T09:58:18.821Z,11.20
2023-01-04T10:01:05.131Z,11.20
2023-01-04T10:03:38.827Z,11.10
2023-01-04T10:06:15.782Z,11.20
2023-01-04T10:08:43.038Z,11.10
2023-01-04T10:11:36.156Z,11.10
2023-01-04T10:14:30.241Z,11.00
2023-01-04T10:17:35.420Z,11.00
2023-01-04T10:23:25.469Z,11.00
2023-01-04T10:25:54.908Z,11.10
2023-01-04T10:28:50.763Z,11.10
2023-01-04T10:31:41.777Z,11.20
2023-01-04T10:34:30.357Z,11.20
2023-01-04T10:36:59.093Z,11.30
2023-01-04T10:39:33.152Z,11.30
2023-01-04T10:42:06.722Z,11.40
2023-01-04T10:45:10.755Z,11.40
2023-01-04T10:47:58.449Z,11.30
2023-01-04T10:50:56.629Z,11.30
2023-01-04T10:53:38.529Z,11.10
2023-01-04T10:56:26.382Z,11.10
2023-01-04T10:58:56.170Z,11.20
2023-01-04T11:01:34.068Z,11.20
2023-01-04T11:04:22.980Z,11.30
2023-01-04T11:07:06.483Z,11.30
2023-01-04T11:09:39.375Z,11.30
2023-01-04T11:12:06.172Z,11.30
2023-01-04T11:14:37.254Z,11.30
2023-01-04T11:17:05.847Z,11.30
2023-01-04T11:19:32.599Z,11.30
2023-01-04T11:22:18.660Z,11.30
2023-01-04T11:25:00.697Z,11.40
2023-01-04T11:27:48.113Z,11.40
2023-01-04T11:30:17.929Z,11.40
2023-01-04T11:32:59.059Z,11.40
2023-01-04T11:35:43.065Z,11.50
2023-01-04T11:38:12.519Z,11.50
2023-01-04T11:40:41.192Z,11.50
2023-01-04T11:43:12.090Z,11.60
2023-01-04T11:45:38.995Z,11.60
2023-01-04T11:48:12.364Z,11.50
2023-01-04T11:50:46.760Z,11.50
2023-01-04T11:53:33.891Z,11.60
2023-01-04T11:56:21.301Z,11.60
2023-01-04T11:59:09.487Z,11.50
2023-01-04T12:01:38.639Z,11.50
2023-01-04T12:04:14.576Z,11.40
2023-01-04T12:06:47.149Z,11.40
2023-01-04T12:09:15.502Z,11.40
2023-01-04T12:11:45.604Z,11.30
2023-01-04T12:14:19.891Z,11.30
2023-01-04T12:16:54.107Z,11.20
2023-01-04T12:19:20.843Z,11.10
2023-01-04T12:21:58.675Z,11.00
2023-01-04T12:24:27.926Z,11.00
2023-01-04T12:26:54.782Z,11.00
2023-01-04T12:29:24.238Z,11.00
2023-01-04T12:32:06.804Z,10.90
2023-01-04T12:34:34.307Z,10.90
2023-01-04T12:37:05.546Z,10.90
2023-01-04T12:39:42.822Z,10.80
2023-01-04T12:42:19.245Z,10.80
2023-01-04T12:44:51.844Z,10.70
2023-01-04T12:47:37.386Z,10.60
2023-01-04T12:50:19.928Z,10.40
2023-01-04T12:55:51.295Z,9.80
2023-01-04T13:01:25.041Z,9.50
2023-01-04T13:04:00.791Z,9.40
2023-01-04T13:06:32.396Z,9.40
2023-01-04T13:08:59.218Z,9.30
2023-01-04T13:12:08.786Z,9.30
2023-01-04T13:14:53.816Z,9.30
2023-01-04T13:17:22.304Z,9.40
2023-01-04T13:19:49.366Z,9.40
2023-01-04T13:22:29.894Z,9.60
2023-01-04T13:24:57.780Z,9.70
2023-01-04T13:27:24.869Z,9.90
2023-01-04T13:29:51.872Z,10.00
2023-01-04T13:32:25.096Z,10.10
2023-01-04T13:35:05.761Z,10.10
2023-01-04T13:37:43.835Z,10.20
2023-01-04T13:40:26.474Z,10.20
2023-01-04T13:43:02.203Z,10.20
2023-01-04T13:45:41.162Z,10.20
2023-01-04T13:48:16.096Z,10.20
2023-01-04T13:50:47.263Z,10.20
2023-01-04T13:53:24.110Z,10.20
2023-01-04T13:55:55.256Z,10.10
2023-01-04T13:58:26.651Z,10.10
2023-01-04T14:00:56.570Z,10.10
2023-01-04T14:03:34.464Z,10.10
2023-01-04T14:06:10.607Z,10.10
2023-01-04T14:09:03.310Z,10.10
2023-01-04T14:12:06.141Z,10.10
2023-01-04T14:14:59.219Z,10.10
2023-01-04T14:17:50.605Z,10.10
2023-01-04T14:20:20.355Z,10.00
2023-01-04T14:22:47.141Z,10.00
2023-01-04T14:25:38.095Z,10.00
2023-01-04T14:28:24.696Z,9.90
2023-01-04T14:30:53.816Z,10.00
2023-01-04T14:33:30.828Z,9.90
2023-01-04T14:36:21.755Z,9.80
2023-01-04T14:39:00.677Z,9.80
2023-01-04T14:41:32.322Z,9.80
2023-01-04T14:44:12.213Z,9.80
2023-01-04T14:46:39.077Z,9.80
2023-01-04T14:49:05.950Z,9.70
2023-01-04T14:51:46.403Z,9.70
2023-01-04T14:54:17.451Z,9.80
2023-01-04T14:56:47.373Z,9.90
2023-01-04T14:59:14.089Z,9.80
2023-01-04T15:01:40.997Z,9.80
2023-01-04T15:04:08.048Z,9.80
2023-01-04T15:06:35.011Z,9.80
2023-01-04T15:09:01.917Z,9.80
2023-01-04T15:11:29.027Z,9.80
2023-01-04T15:13:55.728Z,9.80
2023-01-04T15:16:22.916Z,9.80
2023-01-04T15:18:49.720Z,9.80
2023-01-04T15:21:16.563Z,9.70
2023-01-04T15:23:43.356Z,9.70
2023-01-04T15:26:11.400Z,9.70
2023-01-04T15:28:38.231Z,9.80
2023-01-04T15:31:10.670Z,9.70
2023-01-04T15:33:37.762Z,9.60
2023-01-04T15:36:09.287Z,9.60
2023-01-04T15:38:36.036Z,9.60
2023-01-04T15:41:04.383Z,9.60
2023-01-04T15:43:36.443Z,9.60
2023-01-04T15:46:07.663Z,9.60
2023-01-04T15:48:35.599Z,9.50
2023-01-04T15:51:04.019Z,9.50
2023-01-04T15:53:30.962Z,9.40
2023-01-04T15:56:05.017Z,9.40
2023-01-04T15:58:31.785Z,9.30
2023-01-04T16:01:05.820Z,9.30
2023-01-04T16:03:35.262Z,9.30
2023-01-04T16:06:09.616Z,9.30
2023-01-04T16:08:36.355Z,9.40
2023-01-04T16:11:29.283Z,9.30
2023-01-04T16:13:56.049Z,9.30
2023-01-04T16:16:24.004Z,9.20
2023-01-04T16:18:52.180Z,9.20
2023-01-04T16:21:24.217Z,9.20
2023-01-04T16:23:51.787Z,9.20
2023-01-04T16:26:18.528Z,9.20
2023-01-04T16:28:50.106Z,9.20
2023-01-04T16:31:17.097Z,9.20
2023-01-04T16:33:47.141Z,9.20
2023-01-04T16:36:14.391Z,9.20
2023-01-04T16:38:42.702Z,9.10
2023-01-04T16:41:12.029Z,9.10
2023-01-04T16:43:46.286Z,9.20
2023-01-04T16:46:13.129Z,9.10
2023-01-04T16:48:43.618Z,9.10
2023-01-04T16:51:10.547Z,9.00
2023-01-04T16:53:37.401Z,9.10
2023-01-04T16:56:09.496Z,9.00
2023-01-04T16:58:36.592Z,9.00
2023-01-04T17:01:16.168Z,8.90
2023-01-04T17:03:43.855Z,8.90
2023-01-04T17:06:19.342Z,8.80
2023-01-04T17:08:47.283Z,8.80
2023-01-04T17:12:04.866Z,8.80
2023-01-04T17:14:02.998Z,8.90
2023-01-04T17:16:34.696Z,8.80
2023-01-04T17:19:01.993Z,8.80
2023-01-04T17:21:34.366Z,8.90
2023-01-04T17:24:02.068Z,8.80
2023-01-04T17:26:30.297Z,8.80
2023-01-04T17:28:57.713Z,8.80
2023-01-04T17:31:32.362Z,8.80
2023-01-04T17:33:59.160Z,8.80
2023-01-04T17:36:25.969Z,8.80
2023-01-04T17:38:52.637Z,8.70
2023-01-04T17:41:23.567Z,8.70
2023-01-04T17:43:56.180Z,8.70
2023-01-04T17:46:23.895Z,8.70
2023-01-04T17:49:10.355Z,8.70
2023-01-04T17:51:38.337Z,8.70
2023-01-04T17:54:05.785Z,8.80
2023-01-04T17:56:37.102Z,8.80
2023-01-04T17:59:06.627Z,8.90
2023-01-04T18:01:33.587Z,8.90
2023-01-04T18:04:00.751Z,8.90
2023-01-04T18:06:29.236Z,8.90
2023-01-04T18:08:56.571Z,9.00
2023-01-04T18:11:23.511Z,9.00
2023-01-04T18:13:50.596Z,9.10
2023-01-04T18:16:24.836Z,9.20
2023-01-04T18:18:53.116Z,9.20
2023-01-04T18:21:28.449Z,9.30
2023-01-04T18:27:19.345Z,9.20
2023-01-04T18:29:31.886Z,9.30
2023-01-04T18:31:58.813Z,9.30
2023-01-04T18:34:28.716Z,9.30
2023-01-04T18:36:55.484Z,9.30
2023-01-04T18:39:22.372Z,9.30
2023-01-04T18:41:49.075Z,9.20
2023-01-04T18:44:32.655Z,9.20
2023-01-04T18:47:00.989Z,9.20
2023-01-04T18:49:27.700Z,9.20
2023-01-04T18:51:54.438Z,9.20
2023-01-04T18:54:21.621Z,9.20
2023-01-04T18:56:48.811Z,9.30
2023-01-04T18:59:17.323Z,9.30
2023-01-04T19:01:45.373Z,9.30
2023-01-04T19:04:12.709Z,9.40
2023-01-04T19:06:40.307Z,9.50
2023-01-04T19:09:07.448Z,9.60
2023-01-04T19:11:34.565Z,9.60
2023-01-04T19:14:01.577Z,9.70
2023-01-04T19:16:31.022Z,9.70
2023-01-04T19:19:01.207Z,9.80
2023-01-04T19:21:28.450Z,9.80
2023-01-04T19:23:55.458Z,9.90
2023-01-04T19:26:22.567Z,9.90
2023-01-04T19:28:49.484Z,9.90
2023-01-04T19:31:16.661Z,9.90
2023-01-04T19:33:43.380Z,10.00
2023-01-04T19:36:11.335Z,10.00
2023-01-04T19:38:38.137Z,10.00
2023-01-04T19:41:05.229Z,9.90
2023-01-04T19:43:32.175Z,10.10
2023-01-04T19:45:59.034Z,10.00
2023-01-04T19:48:26.048Z,10.00
2023-01-04T19:51:22.125Z,10.00
2023-01-04T19:53:48.852Z,10.20
2023-01-04T19:56:16.900Z,10.20
2023-01-04T19:58:43.720Z,10.30
2023-01-04T20:01:14.699Z,10.40
2023-01-04T20:03:42.262Z,10.40
2023-01-04T20:06:09.290Z,10.50
2023-01-04T20:08:36.129Z,10.60
2023-01-04T20:11:02.928Z,10.60
2023-01-04T20:13:30.238Z,10.70
2023-01-04T20:15:57.008Z,10.70
2023-01-04T20:18:24.200Z,10.70
2023-01-04T20:20:52.199Z,10.70
2023-01-04T20:23:19.239Z,10.70
2023-01-04T20:25:47.144Z,10.70
2023-01-04T20:28:14.626Z,10.80
2023-01-04T20:30:41.413Z,10.60
2023-01-04T20:33:08.259Z,10.70
2023-01-04T20:35:38.401Z,10.70
2023-01-04T20:38:05.645Z,10.70
2023-01-04T20:40:32.466Z,10.80
2023-01-04T20:43:17.682Z,10.80
2023-01-04T20:45:45.390Z,10.80
2023-01-04T20:48:12.585Z,10.90
2023-01-04T20:50:39.723Z,10.90
2023-01-04T20:53:06.610Z,10.90
2023-01-04T20:55:37.665Z,10.90
2023-01-04T20:58:05.326Z,10.90
2023-01-04T21:00:32.100Z,11.00
2023-01-04T21:02:59.023Z,11.00
2023-01-04T21:05:25.811Z,11.00
2023-01-04T21:07:52.767Z,11.00
2023-01-04T21:10:19.534Z,11.10
2023-01-04T21:12:46.238Z,11.20
2023-01-04T21:15:12.969Z,11.20
2023-01-04T21:17:39.882Z,11.20
2023-01-04T21:20:07.390Z,11.10
2023-01-04T21:22:34.369Z,11.10
2023-01-04T21:25:01.091Z,11.20
2023-01-04T21:27:27.792Z,11.20
2023-01-04T21:29:54.535Z,11.20
2023-01-04T21:32:21.323Z,11.20
2023-01-04T21:34:48.025Z,11.20
2023-01-04T21:37:14.815Z,11.20
2023-01-04T21:39:41.495Z,11.20
2023-01-04T21:42:08.224Z,11.30
2023-01-04T21:44:34.956Z,11.30
2023-01-04T21:47:01.709Z,11.40
2023-01-04T21:49:28.526Z,11.40
2023-01-04T21:51:55.296Z,11.50
2023-01-04T21:54:22.095Z,11.60
2023-01-04T21:56:48.796Z,11.60
2023-01-04T21:59:15.511Z,11.60
2023-01-04T22:01:42.860Z,11.60
2023-01-04T22:04:09.684Z,11.70
2023-01-04T22:06:40.322Z,11.80
2023-01-04T22:09:07.271Z,11.80
2023-01-04T22:11:34.125Z,11.90
2023-01-04T22:14:00.930Z,11.80
2023-01-04T22:16:29.435Z,11.80
2023-01-04T22:18:56.231Z,11.80
2023-01-04T22:21:26.661Z,11.80
2023-01-04T22:23:53.644Z,11.80
2023-01-04T22:26:20.383Z,11.80
2023-01-04T22:28:47.140Z,11.80
2023-01-04T22:31:14.164Z,11.80
2023-01-04T22:33:41.166Z,11.70
2023-01-04T22:36:12.504Z,11.70
2023-01-04T22:38:42.370Z,11.80
2023-01-04T22:41:10.787Z,11.80
2023-01-04T22:43:37.671Z,11.80
2023-01-04T22:46:06.045Z,11.80
2023-01-04T22:48:33.401Z,11.80
2023-01-04T22:51:00.107Z,11.80
2023-01-04T22:53:27.334Z,11.80
2023-01-04T22:56:18.340Z,11.90
2023-01-04T22:58:40.884Z,11.80
2023-01-04T23:01:08.907Z,11.80
2023-01-04T23:03:37.023Z,11.80
2023-01-04T23:06:07.926Z,11.80
2023-01-04T23:08:35.209Z,11.80
2023-01-04T23:11:10.224Z,11.70
2023-01-04T23:13:36.927Z,11.70
2023-01-04T23:16:07.957Z,11.60
2023-01-04T23:18:34.919Z,11.60
2023-01-04T23:21:01.906Z,11.50
2023-01-04T23:23:28.759Z,11.40
2023-01-04T23:25:55.977Z,11.40
2023-01-04T23:28:22.706Z,11.30
2023-01-04T23:30:49.765Z,11.20
2023-01-04T23:33:16.488Z,11.20
2023-01-04T23:35:43.243Z,11.20
2023-01-04T23:38:09.954Z,11.30
2023-01-04T23:40:36.713Z,11.20
2023-01-04T23:43:03.469Z,11.20
2023-01-04T23:45:30.196Z,11.20
2023-01-04T23:47:56.925Z,11.00
2023-01-04T23:50:23.680Z,10.70
2023-01-04T23:52:50.405Z,10.40
2023-01-04T23:55:17.213Z,10.20
2023-01-04T23:57:44.039Z,10.10
